Time;durP1;ratioP1;P1;durP2;ratioP2;P2;SDS_P1;SDS_P2;PMS_P1;PMS_P2;Temp;Humidity;BMP_temperature;BMP_pressure;BME280_temperature;BME280_humidity;BME280_pressure;Samples;Min_cycle;Max_cycle;Signal;HPM_P1;HPM_P2
2024/01/02 00:00:47;;;;;;;6.60;1.77;;;;;;;-148.88;100.00;-17125.47;5082233;28;20020;-80
2024/01/02 00:03:12;;;;;;;7.85;2.10;;;;;;;-148.88;100.00;-17125.47;5082024;28;20406;-80
2024/01/02 00:05:37;;;;;;;4.70;1.58;;;;;;;-148.88;100.00;-17125.47;5098366;28;20478;-79
2024/01/02 00:08:03;;;;;;;11.35;1.67;;;;;;;-148.88;100.00;-17125.47;5094691;28;20115;-79
2024/01/02 00:10:28;;;;;;;6.38;1.30;;;;;;;-148.88;100.00;-17125.47;5094548;28;20016;-79
2024/01/02 00:12:57;;;;;;;7.88;1.50;;;;;;;-148.88;100.00;-17125.47;5094983;28;20104;-79
2024/01/02 00:15:23;;;;;;;12.00;1.73;;;;;;;-148.88;100.00;-17125.47;5095176;28;20050;-80
2024/01/02 00:17:48;;;;;;;7.40;1.60;;;;;;;-148.88;100.00;-17125.47;5097548;28;20475;-80
2024/01/02 00:20:14;;;;;;;8.27;1.52;;;;;;;-148.88;100.00;-17125.47;5097318;28;20024;-80
2024/01/02 00:22:39;;;;;;;11.43;2.13;;;;;;;-148.88;100.00;-17125.47;5079621;28;20020;-80
2024/01/02 00:25:06;;;;;;;8.82;1.85;;;;;;;-148.88;100.00;-17125.47;5096476;28;20031;-80
2024/01/02 00:27:31;;;;;;;7.47;1.45;;;;;;;-148.88;100.00;-17125.47;5096724;28;20030;-80
2024/01/02 00:29:56;;;;;;;14.68;2.17;;;;;;;-148.88;100.00;-17125.47;5097026;28;20103;-80
2024/01/02 00:32:22;;;;;;;7.20;1.23;;;;;;;-148.88;100.00;-17125.47;5096739;28;20099;-80
2024/01/02 00:34:47;;;;;;;5.72;1.60;;;;;;;-148.88;100.00;-17125.47;5096796;28;20083;-80
2024/01/02 00:37:12;;;;;;;10.95;1.65;;;;;;;-148.88;100.00;-17125.47;5096561;28;20550;-80
2024/01/02 00:39:38;;;;;;;6.63;1.60;;;;;;;-148.88;100.00;-17125.47;5097619;28;20032;-79
2024/01/02 00:42:03;;;;;;;7.43;1.70;;;;;;;-148.88;100.00;-17125.47;5095065;28;20015;-79
2024/01/02 00:44:29;;;;;;;11.63;1.75;;;;;;;-148.88;100.00;-17125.47;5075654;28;20032;-79
2024/01/02 00:46:54;;;;;;;9.02;2.25;;;;;;;-148.88;100.00;-17125.47;5077504;28;20123;-79
2024/01/02 00:49:19;;;;;;;10.50;2.60;;;;;;;-148.88;100.00;-17125.47;5094797;28;20020;-79
2024/01/02 00:51:45;;;;;;;7.90;1.63;;;;;;;-148.88;100.00;-17125.47;5095965;28;20042;-80
2024/01/02 00:54:10;;;;;;;10.85;2.38;;;;;;;-148.88;100.00;-17125.47;5095925;28;20119;-80
2024/01/02 00:56:35;;;;;;;11.93;2.15;;;;;;;-148.88;100.00;-17125.47;5096786;28;20028;-80
2024/01/02 00:59:01;;;;;;;12.55;1.92;;;;;;;-148.88;100.00;-17125.47;5096418;28;20027;-80
2024/01/02 01:01:26;;;;;;;10.40;2.20;;;;;;;-148.88;100.00;-17125.47;5096265;28;20048;-80
2024/01/02 01:03:51;;;;;;;11.93;2.00;;;;;;;-148.88;100.00;-17125.47;5098553;28;20077;-80
2024/01/02 01:06:17;;;;;;;10.88;2.53;;;;;;;-148.88;100.00;-17125.47;5100200;28;20081;-80
2024/01/02 01:08:42;;;;;;;9.02;1.73;;;;;;;-148.88;100.00;-17125.47;5099945;28;20034;-79
2024/01/02 01:11:07;;;;;;;9.27;2.03;;;;;;;-148.88;100.00;-17125.47;5100003;28;20020;-80
2024/01/02 01:13:33;;;;;;;8.68;1.70;;;;;;;-148.88;100.00;-17125.47;5100189;28;20077;-79
2024/01/02 01:15:58;;;;;;;7.03;2.05;;;;;;;-148.88;100.00;-17125.47;5099911;28;20032;-80
2024/01/02 01:18:23;;;;;;;10.85;2.38;;;;;;;-148.88;100.00;-17125.47;5095164;28;20020;-79
2024/01/02 01:20:49;;;;;;;17.75;2.38;;;;;;;-148.88;100.00;-17125.47;5075256;28;20066;-79
2024/01/02 01:23:14;;;;;;;9.27;1.30;;;;;;;-148.88;100.00;-17125.47;5075305;28;20475;-79
2024/01/02 01:25:40;;;;;;;11.80;1.88;;;;;;;-148.88;100.00;-17125.47;5093548;28;20082;-79
2024/01/02 01:28:06;;;;;;;7.25;2.85;;;;;;;-148.88;100.00;-17125.47;5075461;28;20048;-79
2024/01/02 01:30:31;;;;;;;12.80;2.47;;;;;;;-148.88;100.00;-17125.47;5093754;28;20024;-80
2024/01/02 01:32:56;;;;;;;9.95;3.15;;;;;;;-148.88;100.00;-17125.47;5079442;28;20530;-80
2024/01/02 01:35:22;;;;;;;10.23;1.55;;;;;;;-148.88;100.00;-17125.47;5100280;28;20102;-80
2024/01/02 01:37:47;;;;;;;7.25;1.35;;;;;;;-148.88;100.00;-17125.47;5099256;28;20059;-80
2024/01/02 01:40:12;;;;;;;13.57;2.00;;;;;;;-148.88;100.00;-17125.47;5081556;28;20024;-80
2024/01/02 01:42:38;;;;;;;10.00;1.95;;;;;;;-148.88;100.00;-17125.47;5081433;28;20024;-80
2024/01/02 01:45:04;;;;;;;11.65;1.85;;;;;;;-148.88;100.00;-17125.47;5099712;28;20052;-80
2024/01/02 01:47:30;;;;;;;5.18;1.70;;;;;;;-148.88;100.00;-17125.47;5099497;28;20020;-79
2024/01/02 01:49:55;;;;;;;14.15;1.88;;;;;;;-148.88;100.00;-17125.47;5099486;28;20046;-80
2024/01/02 01:52:21;;;;;;;19.33;2.17;;;;;;;-148.88;100.00;-17125.47;5099624;28;20028;-80
2024/01/02 01:54:46;;;;;;;9.85;1.67;;;;;;;-148.88;100.00;-17125.47;5094125;28;20024;-79
2024/01/02 01:57:13;;;;;;;8.63;1.90;;;;;;;-148.88;100.00;-17125.47;5093195;28;20478;-79
2024/01/02 01:59:39;;;;;;;5.80;1.33;;;;;;;-148.88;100.00;-17125.47;5093114;28;20081;-79
2024/01/02 02:02:05;;;;;;;6.32;1.45;;;;;;;-148.88;100.00;-17125.47;5095804;28;20094;-79
2024/01/02 02:04:32;;;;;;;12.65;1.88;;;;;;;-148.88;100.00;-17125.47;5097272;28;20108;-79
2024/01/02 02:06:57;;;;;;;10.20;1.65;;;;;;;-148.88;100.00;-17125.47;5099979;28;20030;-80
2024/01/02 02:09:22;;;;;;;9.95;1.98;;;;;;;-148.88;100.00;-17125.47;5103386;28;20111;-80
2024/01/02 02:11:48;;;;;;;7.60;1.55;;;;;;;-148.88;100.00;-17125.47;5103214;28;20016;-80
2024/01/02 02:14:13;;;;;;;8.30;1.30;;;;;;;-148.88;100.00;-17125.47;5103020;28;20054;-80
2024/01/02 02:16:43;;;;;;;6.45;1.55;;;;;;;-148.88;100.00;-17125.47;5103108;28;20024;-80
2024/01/02 02:19:08;;;;;;;6.70;1.20;;;;;;;-148.88;100.00;-17125.47;5102822;28;20020;-80
2024/01/02 02:21:35;;;;;;;9.20;1.75;;;;;;;-148.88;100.00;-17125.47;5102829;28;20111;-79
2024/01/02 02:24:01;;;;;;;15.13;2.92;;;;;;;-148.88;100.00;-17125.47;5102832;28;20502;-79
2024/01/02 02:26:26;;;;;;;5.07;2.10;;;;;;;-148.88;100.00;-17125.47;5084490;28;20023;-79
2024/01/02 02:28:52;;;;;;;5.47;1.20;;;;;;;-148.88;100.00;-17125.47;5102278;28;20038;-79
2024/01/02 02:31:18;;;;;;;5.15;1.30;;;;;;;-148.88;100.00;-17125.47;5096380;28;20056;-79
2024/01/02 02:33:43;;;;;;;7.15;1.20;;;;;;;-148.88;100.00;-17125.47;5096334;28;20027;-79
2024/01/02 02:36:08;;;;;;;7.75;1.77;;;;;;;-148.88;100.00;-17125.47;5078334;28;20031;-79
2024/01/02 02:38:34;;;;;;;8.02;1.27;;;;;;;-148.88;100.00;-17125.47;5096495;28;20027;-79
2024/01/02 02:41:01;;;;;;;5.13;1.13;;;;;;;-148.88;100.00;-17125.47;5097669;28;20040;-79
2024/01/02 02:43:27;;;;;;;5.82;1.48;;;;;;;-148.88;100.00;-17125.47;5103376;28;20103;-80
2024/01/02 02:45:52;;;;;;;6.57;1.05;;;;;;;-148.88;100.00;-17125.47;5102970;28;20035;-79
2024/01/02 02:48:17;;;;;;;7.93;1.50;;;;;;;-148.88;100.00;-17125.47;5102577;28;20024;-80
2024/01/02 02:50:43;;;;;;;11.25;1.38;;;;;;;-148.88;100.00;-17125.47;5101558;28;20032;-79
2024/01/02 02:53:08;;;;;;;8.68;1.30;;;;;;;-148.88;100.00;-17125.47;5102856;28;20020;-80
2024/01/02 02:55:33;;;;;;;4.00;1.05;;;;;;;-148.88;100.00;-17125.47;5103119;28;20081;-80
2024/01/02 02:57:59;;;;;;;7.53;1.20;;;;;;;-148.88;100.00;-17125.47;5103828;28;20094;-80
2024/01/02 03:00:24;;;;;;;9.52;1.10;;;;;;;-148.88;100.00;-17125.47;5100921;28;20107;-80
2024/01/02 03:02:49;;;;;;;7.10;1.33;;;;;;;-148.88;100.00;-17125.47;5080946;28;20031;-80
2024/01/02 03:05:16;;;;;;;4.30;0.98;;;;;;;-148.88;100.00;-17125.47;5081025;28;20371;-79
2024/01/02 03:07:41;;;;;;;3.35;0.90;;;;;;;-148.88;100.00;-17125.47;5077451;28;20031;-79
2024/01/02 03:10:07;;;;;;;7.28;1.27;;;;;;;-148.88;100.00;-17125.47;5097611;28;20016;-80
2024/01/02 03:12:32;;;;;;;3.05;0.75;;;;;;;-148.88;100.00;-17125.47;5098077;28;20020;-80
2024/01/02 03:14:57;;;;;;;6.55;1.25;;;;;;;-148.88;100.00;-17125.47;5098439;28;20069;-80
2024/01/02 03:17:23;;;;;;;5.55;1.10;;;;;;;-148.88;100.00;-17125.47;5079661;28;20023;-80
2024/01/02 03:19:49;;;;;;;6.65;1.55;;;;;;;-148.88;100.00;-17125.47;5098155;28;20024;-79
2024/01/02 03:22:14;;;;;;;6.00;1.25;;;;;;;-148.88;100.00;-17125.47;5097601;28;20483;-80
2024/01/02 03:24:39;;;;;;;9.10;1.00;;;;;;;-148.88;100.00;-17125.47;5079345;28;20479;-80
2024/01/02 03:27:05;;;;;;;6.03;1.05;;;;;;;-148.88;100.00;-17125.47;5097827;28;20020;-80
2024/01/02 03:29:30;;;;;;;4.00;1.67;;;;;;;-148.88;100.00;-17125.47;5099043;28;20031;-80
2024/01/02 03:31:55;;;;;;;4.07;1.55;;;;;;;-148.88;100.00;-17125.47;5100781;28;20016;-80
2024/01/02 03:34:21;;;;;;;4.05;0.85;;;;;;;-148.88;100.00;-17125.47;5101041;28;20028;-80
2024/01/02 03:36:46;;;;;;;4.43;0.95;;;;;;;-148.88;100.00;-17125.47;5082479;28;20016;-80
2024/01/02 03:39:11;;;;;;;2.85;0.85;;;;;;;-148.88;100.00;-17125.47;5100955;28;20024;-80
2024/01/02 03:41:37;;;;;;;6.78;0.90;;;;;;;-148.88;100.00;-17125.47;5098279;28;20027;-80
2024/01/02 03:44:02;;;;;;;2.55;0.80;;;;;;;-148.88;100.00;-17125.47;5094964;28;20465;-80
2024/01/02 03:46:27;;;;;;;4.88;1.25;;;;;;;-148.88;100.00;-17125.47;5076900;28;20027;-80
2024/01/02 03:48:53;;;;;;;4.72;1.00;;;;;;;-148.88;100.00;-17125.47;5094952;28;20028;-80
2024/01/02 03:51:18;;;;;;;4.13;1.55;;;;;;;-148.88;100.00;-17125.47;5099701;28;20429;-80
2024/01/02 03:53:43;;;;;;;7.57;1.50;;;;;;;-148.88;100.00;-17125.47;5100499;28;20394;-80
2024/01/02 03:56:10;;;;;;;3.63;1.10;;;;;;;-148.88;100.00;-17125.47;5083768;28;20069;-80
2024/01/02 03:58:36;;;;;;;6.03;1.55;;;;;;;-148.88;100.00;-17125.47;5102437;28;20103;-81
2024/01/02 04:01:01;;;;;;;10.88;2.22;;;;;;;-148.88;100.00;-17125.47;5103347;28;20048;-80
2024/01/02 04:03:27;;;;;;;5.75;1.80;;;;;;;-148.88;100.00;-17125.47;5102640;28;20604;-81
2024/01/02 04:05:53;;;;;;;5.15;1.20;;;;;;;-148.88;100.00;-17125.47;5102428;28;20023;-81
2024/01/02 04:08:18;;;;;;;5.53;1.70;;;;;;;-148.88;100.00;-17125.47;5102498;28;20488;-81
2024/01/02 04:10:44;;;;;;;3.17;1.23;;;;;;;-148.88;100.00;-17125.47;5102036;28;20052;-81
2024/01/02 04:13:09;;;;;;;4.10;1.30;;;;;;;-148.88;100.00;-17125.47;5101314;28;20382;-81
2024/01/02 04:15:35;;;;;;;7.93;1.35;;;;;;;-148.88;100.00;-17125.47;5100742;28;20473;-81
2024/01/02 04:18:01;;;;;;;4.28;0.95;;;;;;;-148.88;100.00;-17125.47;5077346;28;20020;-80
2024/01/02 04:20:26;;;;;;;3.97;1.10;;;;;;;-148.88;100.00;-17125.47;5093969;28;20073;-79
2024/01/02 04:22:54;;;;;;;4.95;1.50;;;;;;;-148.88;100.00;-17125.47;5093815;28;20391;-80
2024/01/02 04:25:21;;;;;;;7.40;1.30;;;;;;;-148.88;100.00;-17125.47;5097321;28;20023;-80
2024/01/02 04:27:46;;;;;;;7.22;1.40;;;;;;;-148.88;100.00;-17125.47;5077807;28;20398;-80
2024/01/02 04:30:13;;;;;;;3.33;1.10;;;;;;;-148.88;100.00;-17125.47;5094799;28;20490;-80
2024/01/02 04:32:38;;;;;;;2.58;1.15;;;;;;;-148.88;100.00;-17125.47;5094967;28;20382;-80
2024/01/02 04:35:04;;;;;;;2.85;1.10;;;;;;;-148.88;100.00;-17125.47;5098166;28;20084;-80
2024/01/02 04:37:29;;;;;;;4.68;1.63;;;;;;;-148.88;100.00;-17125.47;5097203;28;20026;-80
2024/01/02 04:39:57;;;;;;;2.90;1.40;;;;;;;-148.88;100.00;-17125.47;5097872;28;20027;-80
2024/01/02 04:42:23;;;;;;;3.60;1.20;;;;;;;-148.88;100.00;-17125.47;5095109;28;20020;-81
2024/01/02 04:44:48;;;;;;;2.53;1.15;;;;;;;-148.88;100.00;-17125.47;5077706;28;20027;-80
2024/01/02 04:47:14;;;;;;;2.25;1.25;;;;;;;-148.88;100.00;-17125.47;5097161;28;20035;-81
2024/01/02 04:49:39;;;;;;;6.63;1.42;;;;;;;-148.88;100.00;-17125.47;5098766;28;20421;-81
2024/01/02 04:52:05;;;;;;;6.82;1.45;;;;;;;-148.88;100.00;-17125.47;5094626;28;20020;-81
2024/01/02 04:54:30;;;;;;;2.30;1.00;;;;;;;-148.88;100.00;-17125.47;5093783;28;20032;-80
2024/01/02 04:56:56;;;;;;;5.07;1.35;;;;;;;-148.88;100.00;-17125.47;5075672;28;20478;-81
2024/01/02 04:59:21;;;;;;;9.27;1.20;;;;;;;-148.88;100.00;-17125.47;5094034;28;20020;-80
2024/01/02 05:01:47;;;;;;;3.47;1.23;;;;;;;-148.88;100.00;-17125.47;5096901;28;20111;-80
2024/01/02 05:04:12;;;;;;;5.50;1.65;;;;;;;-148.88;100.00;-17125.47;5094640;28;20103;-80
2024/01/02 05:06:37;;;;;;;2.50;1.00;;;;;;;-148.88;100.00;-17125.47;5095548;28;20103;-80
2024/01/02 05:09:03;;;;;;;3.33;1.38;;;;;;;-148.88;100.00;-17125.47;5097983;28;20032;-81
2024/01/02 05:11:28;;;;;;;4.50;1.10;;;;;;;-148.88;100.00;-17125.47;5099770;28;20066;-80
2024/01/02 05:13:53;;;;;;;5.47;1.20;;;;;;;-148.88;100.00;-17125.47;5097297;28;20028;-81
2024/01/02 05:16:19;;;;;;;4.20;0.75;;;;;;;-148.88;100.00;-17125.47;5096214;28;20016;-80
2024/01/02 05:18:44;;;;;;;4.10;1.10;;;;;;;-148.88;100.00;-17125.47;5098898;28;20024;-80
2024/01/02 05:21:10;;;;;;;2.35;1.00;;;;;;;-148.88;100.00;-17125.47;5095056;28;20020;-80
2024/01/02 05:23:35;;;;;;;3.63;1.05;;;;;;;-148.88;100.00;-17125.47;5095470;28;20106;-80
2024/01/02 05:26:01;;;;;;;5.47;0.90;;;;;;;-148.88;100.00;-17125.47;5095826;28;20047;-80
2024/01/02 05:28:26;;;;;;;3.90;1.20;;;;;;;-148.88;100.00;-17125.47;5096225;28;20036;-81
2024/01/02 05:30:52;;;;;;;1.75;0.70;;;;;;;-148.88;100.00;-17125.47;5093829;28;20096;-80
2024/01/02 05:33:17;;;;;;;1.90;0.80;;;;;;;-148.88;100.00;-17125.47;5076327;28;20021;-81
2024/01/02 05:35:42;;;;;;;4.05;0.75;;;;;;;-148.88;100.00;-17125.47;5079902;28;20031;-80
2024/01/02 05:38:08;;;;;;;1.13;0.63;;;;;;;-148.88;100.00;-17125.47;5103528;28;20023;-81
2024/01/02 05:40:33;;;;;;;1.45;0.63;;;;;;;-148.88;100.00;-17125.47;5102130;28;20024;-81
2024/01/02 05:42:58;;;;;;;5.90;0.82;;;;;;;-148.88;100.00;-17125.47;5103695;28;20024;-81
2024/01/02 05:45:24;;;;;;;2.13;0.82;;;;;;;-148.88;100.00;-17125.47;5102513;28;20074;-81
2024/01/02 05:47:49;;;;;;;1.23;0.63;;;;;;;-148.88;100.00;-17125.47;5084209;28;20067;-81
2024/01/02 05:50:14;;;;;;;1.65;0.50;;;;;;;-148.88;100.00;-17125.47;5083194;28;20486;-82
2024/01/02 05:52:42;;;;;;;2.03;0.52;;;;;;;-148.88;100.00;-17125.47;5103220;28;20024;-81
2024/01/02 05:55:08;;;;;;;1.02;0.60;;;;;;;-148.88;100.00;-17125.47;5101830;28;20023;-80
2024/01/02 05:57:33;;;;;;;1.55;0.50;;;;;;;-148.88;100.00;-17125.47;5099413;28;20051;-80
2024/01/02 05:59:59;;;;;;;2.95;0.50;;;;;;;-148.88;100.00;-17125.47;5081017;28;20395;-80
2024/01/02 06:02:24;;;;;;;2.97;0.47;;;;;;;-148.88;100.00;-17125.47;5099285;28;20059;-81
2024/01/02 06:04:50;;;;;;;0.60;0.40;;;;;;;-148.88;100.00;-17125.47;5097801;28;20035;-81
2024/01/02 06:07:15;;;;;;;0.77;0.30;;;;;;;-148.88;100.00;-17125.47;5096805;28;20027;-81
2024/01/02 06:09:40;;;;;;;1.15;0.47;;;;;;;-148.88;100.00;-17125.47;5097384;28;20077;-81
2024/01/02 06:12:06;;;;;;;1.10;0.40;;;;;;;-148.88;100.00;-17125.47;5080432;28;20050;-81
2024/01/02 06:14:31;;;;;;;1.02;0.32;;;;;;;-148.88;100.00;-17125.47;5097186;28;20035;-81
2024/01/02 06:16:57;;;;;;;1.75;0.40;;;;;;;-148.88;100.00;-17125.47;5097685;28;20031;-81
2024/01/02 06:19:22;;;;;;;0.70;0.40;;;;;;;-148.88;100.00;-17125.47;5079056;28;20016;-81
2024/01/02 06:21:48;;;;;;;0.40;0.30;;;;;;;-148.88;100.00;-17125.47;5096561;28;20425;-80
2024/01/02 06:24:13;;;;;;;1.58;0.40;;;;;;;-148.88;100.00;-17125.47;5096798;28;20102;-81
2024/01/02 06:26:38;;;;;;;0.65;0.38;;;;;;;-148.88;100.00;-17125.47;5096514;28;20028;-81
2024/01/02 06:29:04;;;;;;;0.77;0.40;;;;;;;-148.88;100.00;-17125.47;5097084;28;20032;-81
2024/01/02 06:31:29;;;;;;;0.60;0.30;;;;;;;-148.88;100.00;-17125.47;5096594;28;20031;-80
2024/01/02 06:33:54;;;;;;;0.73;0.20;;;;;;;-148.88;100.00;-17125.47;5078961;28;20046;-81
2024/01/02 06:36:20;;;;;;;0.73;0.43;;;;;;;-148.88;100.00;-17125.47;5096633;28;20031;-81
2024/01/02 06:38:46;;;;;;;0.60;0.30;;;;;;;-148.88;100.00;-17125.47;5096393;28;20027;-81
2024/01/02 06:41:11;;;;;;;2.20;0.30;;;;;;;-148.88;100.00;-17125.47;5078289;28;20047;-81
2024/01/02 06:43:37;;;;;;;0.50;0.30;;;;;;;-148.88;100.00;-17125.47;5095971;28;20062;-81
2024/01/02 06:46:03;;;;;;;0.88;0.30;;;;;;;-148.88;100.00;-17125.47;5095971;28;20074;-81
2024/01/02 06:48:28;;;;;;;0.50;0.20;;;;;;;-148.88;100.00;-17125.47;5077783;28;20019;-81
2024/01/02 06:50:53;;;;;;;0.65;0.30;;;;;;;-148.88;100.00;-17125.47;5096074;28;20566;-81
2024/01/02 06:53:19;;;;;;;0.55;0.20;;;;;;;-148.88;100.00;-17125.47;5095945;28;20074;-81
2024/01/02 06:55:44;;;;;;;0.35;0.30;;;;;;;-148.88;100.00;-17125.47;5077780;28;20031;-81
2024/01/02 06:58:10;;;;;;;0.52;0.30;;;;;;;-148.88;100.00;-17125.47;5077561;28;20024;-81
2024/01/02 07:00:35;;;;;;;0.57;0.20;;;;;;;-148.88;100.00;-17125.47;5077383;28;20020;-81
2024/01/02 07:03:00;;;;;;;0.73;0.30;;;;;;;-148.88;100.00;-17125.47;5096313;28;20032;-81
2024/01/02 07:05:25;;;;;;;0.80;0.30;;;;;;;-148.88;100.00;-17125.47;5095674;28;20028;-81
2024/01/02 07:07:51;;;;;;;0.98;0.30;;;;;;;-148.88;100.00;-17125.47;5078030;28;20391;-81
2024/01/02 07:10:17;;;;;;;0.65;0.30;;;;;;;-148.88;100.00;-17125.47;5096050;28;20032;-82
2024/01/02 07:12:42;;;;;;;0.70;0.40;;;;;;;-148.88;100.00;-17125.47;5096295;28;20099;-82
2024/01/02 07:15:08;;;;;;;1.05;0.57;;;;;;;-148.88;100.00;-17125.47;5096116;28;20117;-82
2024/01/02 07:17:34;;;;;;;1.95;0.60;;;;;;;-148.88;100.00;-17125.47;5078153;28;20026;-82
2024/01/02 07:19:59;;;;;;;3.13;0.60;;;;;;;-148.88;100.00;-17125.47;5095757;28;20420;-81
2024/01/02 07:22:26;;;;;;;0.73;0.50;;;;;;;-148.88;100.00;-17125.47;5095875;28;20028;-82
2024/01/02 07:24:52;;;;;;;0.73;0.40;;;;;;;-148.88;100.00;-17125.47;5077668;28;20123;-81
2024/01/02 07:27:17;;;;;;;1.70;0.30;;;;;;;-148.88;100.00;-17125.47;5095913;28;20064;-82
2024/01/02 07:29:42;;;;;;;0.77;0.32;;;;;;;-148.88;100.00;-17125.47;5096244;28;20069;-81
2024/01/02 07:32:08;;;;;;;0.93;0.40;;;;;;;-148.88;100.00;-17125.47;5077806;28;20066;-82
2024/01/02 07:34:33;;;;;;;1.35;0.50;;;;;;;-148.88;100.00;-17125.47;5096138;28;20487;-81
2024/01/02 07:36:59;;;;;;;2.38;0.70;;;;;;;-148.88;100.00;-17125.47;5078174;28;20024;-82
2024/01/02 07:39:24;;;;;;;1.27;0.70;;;;;;;-148.88;100.00;-17125.47;5079119;28;20043;-82
2024/01/02 07:41:50;;;;;;;1.63;0.70;;;;;;;-148.88;100.00;-17125.47;5096364;28;20035;-82
2024/01/02 07:44:15;;;;;;;0.85;0.50;;;;;;;-148.88;100.00;-17125.47;5097272;28;20054;-82
2024/01/02 07:46:40;;;;;;;1.83;0.75;;;;;;;-148.88;100.00;-17125.47;5099233;28;20060;-82
2024/01/02 07:49:06;;;;;;;2.13;0.60;;;;;;;-148.88;100.00;-17125.47;5086946;28;20034;-82
2024/01/02 07:51:31;;;;;;;1.13;0.63;;;;;;;-148.88;100.00;-17125.47;5078362;28;20020;-82
2024/01/02 07:53:56;;;;;;;1.40;0.50;;;;;;;-148.88;100.00;-17125.47;5112432;28;20008;-82
2024/01/02 07:56:22;;;;;;;1.30;0.40;;;;;;;-148.88;100.00;-17125.47;5117692;28;20031;-81
2024/01/02 07:58:47;;;;;;;0.93;0.45;;;;;;;-148.88;100.00;-17125.47;5115761;28;20028;-82
2024/01/02 08:01:13;;;;;;;0.65;0.40;;;;;;;-148.88;100.00;-17125.47;5113598;28;20035;-82
2024/01/02 08:03:39;;;;;;;2.50;0.63;;;;;;;-148.88;100.00;-17125.47;5115439;28;20023;-82
2024/01/02 08:06:04;;;;;;;0.85;0.50;;;;;;;-148.88;100.00;-17125.47;5100185;22;20080;-82
2024/01/02 08:08:30;;;;;;;1.25;0.40;;;;;;;-148.88;100.00;-17125.47;5057357;28;20033;-82
2024/01/02 08:10:55;;;;;;;1.15;0.47;;;;;;;-148.88;100.00;-17125.47;5058385;28;20036;-83
2024/01/02 08:13:21;;;;;;;1.52;0.68;;;;;;;-148.88;100.00;-17125.47;5041270;28;20029;-83
2024/01/02 08:15:46;;;;;;;1.35;0.70;;;;;;;-148.88;100.00;-17125.47;5040843;28;20472;-83
2024/01/02 08:18:11;;;;;;;1.75;0.60;;;;;;;-148.88;100.00;-17125.47;5057861;28;20056;-83
2024/01/02 08:20:37;;;;;;;1.83;0.52;;;;;;;-148.88;100.00;-17125.47;5057862;28;20110;-83
2024/01/02 08:23:03;;;;;;;1.42;0.60;;;;;;;-148.88;100.00;-17125.47;5040381;28;20013;-83
2024/01/02 08:25:29;;;;;;;1.35;0.60;;;;;;;-148.88;100.00;-17125.47;5058313;28;20037;-82
2024/01/02 08:27:54;;;;;;;1.42;0.73;;;;;;;-148.88;100.00;-17125.47;5039766;28;20033;-83
2024/01/02 08:30:19;;;;;;;1.10;0.52;;;;;;;-148.88;100.00;-17125.47;5040102;28;20021;-83
2024/01/02 08:32:45;;;;;;;1.08;0.57;;;;;;;-148.88;100.00;-17125.47;5058289;28;20545;-83
2024/01/02 08:35:10;;;;;;;1.48;0.70;;;;;;;-148.88;100.00;-17125.47;5038411;28;20514;-84
2024/01/02 08:37:36;;;;;;;1.98;0.90;;;;;;;-148.88;100.00;-17125.47;5053979;28;20537;-83
2024/01/02 08:40:01;;;;;;;1.67;0.95;;;;;;;-148.88;100.00;-17125.47;5035628;28;20024;-82
2024/01/02 08:42:26;;;;;;;2.38;1.10;;;;;;;-148.88;100.00;-17125.47;5035780;28;20435;-83
2024/01/02 08:44:52;;;;;;;2.30;1.10;;;;;;;-148.88;100.00;-17125.47;5053568;28;20028;-83
2024/01/02 08:47:17;;;;;;;2.38;1.33;;;;;;;-148.88;100.00;-17125.47;5035683;28;20020;-83
2024/01/02 08:49:42;;;;;;;2.83;1.15;;;;;;;-148.88;100.00;-17125.47;5053667;28;20071;-83
2024/01/02 08:52:08;;;;;;;2.63;1.27;;;;;;;-148.88;100.00;-17125.47;5035965;28;20049;-83
2024/01/02 08:54:33;;;;;;;2.55;1.30;;;;;;;-148.88;100.00;-17125.47;5036186;28;20025;-83
2024/01/02 08:56:58;;;;;;;3.17;1.30;;;;;;;-148.88;100.00;-17125.47;5035515;28;20025;-85
2024/01/02 08:59:24;;;;;;;3.90;1.85;;;;;;;-148.88;100.00;-17125.47;5052041;28;20744;-83
2024/01/02 09:01:52;;;;;;;3.47;1.60;;;;;;;-148.88;100.00;-17125.47;5050599;28;20480;-83
2024/01/02 09:04:18;;;;;;;4.53;1.88;;;;;;;-148.88;100.00;-17125.47;5050668;28;20082;-83
2024/01/02 09:06:44;;;;;;;4.20;2.03;;;;;;;-148.88;100.00;-17125.47;5053119;28;20445;-84
2024/01/02 09:09:10;;;;;;;5.95;2.83;;;;;;;-148.88;100.00;-17125.47;5054973;28;20427;-84
2024/01/02 09:11:37;;;;;;;6.55;2.75;;;;;;;-148.88;100.00;-17125.47;5050828;28;20029;-84
2024/01/02 09:14:02;;;;;;;7.38;3.45;;;;;;;-148.88;100.00;-17125.47;5050152;28;20483;-83
2024/01/02 09:16:32;;;;;;;6.32;3.00;;;;;;;-148.88;100.00;-17125.47;5051413;28;20109;-83
2024/01/02 09:18:58;;;;;;;5.53;2.92;;;;;;;-148.88;100.00;-17125.47;5051166;28;20035;-83
2024/01/02 09:21:23;;;;;;;6.63;3.10;;;;;;;-148.88;100.00;-17125.47;5051150;28;20025;-84
2024/01/02 09:23:49;;;;;;;8.95;7.22;;;;;;;-148.88;100.00;-17125.47;5051246;28;20487;-83
2024/01/02 09:26:19;;;;;;;9.15;4.07;;;;;;;-148.88;100.00;-17125.47;5051118;28;20476;-83
2024/01/02 09:28:45;;;;;;;8.32;3.90;;;;;;;-148.88;100.00;-17125.47;5051418;28;20029;-83
2024/01/02 09:31:11;;;;;;;8.93;4.80;;;;;;;-148.88;100.00;-17125.47;5051804;28;20480;-84
2024/01/02 09:33:38;;;;;;;8.48;4.30;;;;;;;-148.88;100.00;-17125.47;5050354;28;20025;-83
2024/01/02 09:36:05;;;;;;;9.32;4.63;;;;;;;-148.88;100.00;-17125.47;5050423;28;20092;-83
2024/01/02 09:38:31;;;;;;;8.52;4.43;;;;;;;-148.88;100.00;-17125.47;5050342;28;20083;-83
2024/01/02 09:41:18;;;;;;;9.30;4.43;;;;;;;-148.88;100.00;-17125.47;5043231;28;20041;-83
2024/01/02 09:44:08;;;;;;;9.65;4.63;;;;;;;-148.88;100.00;-17125.47;5052265;28;20024;-83
2024/01/02 09:46:37;;;;;;;7.30;3.75;;;;;;;-148.88;100.00;-17125.47;5051417;28;20037;-83
2024/01/02 09:49:27;;;;;;;6.50;3.03;;;;;;;-148.88;100.00;-17125.47;5050523;28;20048;-84
2024/01/02 09:52:03;;;;;;;9.68;8.32;;;;;;;-148.88;100.00;-17125.47;5039344;28;20029;-83
2024/01/02 09:54:38;;;;;;;12.02;8.85;;;;;;;-148.88;100.00;-17125.47;5049543;28;20025;-83
2024/01/02 09:57:12;;;;;;;11.32;8.95;;;;;;;-148.88;100.00;-17125.47;5050922;28;20060;-83
2024/01/02 09:59:58;;;;;;;13.95;10.18;;;;;;;-148.88;100.00;-17125.47;5050829;28;20029;-83
2024/01/02 10:03:02;;;;;;;10.77;5.70;;;;;;;-148.88;100.00;-17125.47;5049435;28;20025;-83
2024/01/02 10:05:54;;;;;;;13.40;5.60;;;;;;;-148.88;100.00;-17125.47;5051930;28;20025;-83
2024/01/02 10:08:22;;;;;;;16.67;13.27;;;;;;;-148.88;100.00;-17125.47;5051881;28;20029;-83
2024/01/02 10:11:04;;;;;;;16.48;14.07;;;;;;;-148.88;100.00;-17125.47;5052145;28;20055;-83
2024/01/02 10:13:52;;;;;;;12.93;6.22;;;;;;;-148.88;100.00;-17125.47;5052438;28;20075;-82
2024/01/02 10:16:30;;;;;;;14.38;7.35;;;;;;;-148.88;100.00;-17125.47;5052053;28;20021;-83
2024/01/02 10:19:07;;;;;;;14.40;7.32;;;;;;;-148.88;100.00;-17125.47;5053388;28;20400;-83
2024/01/02 10:21:48;;;;;;;14.25;6.88;;;;;;;-148.88;100.00;-17125.47;5054030;28;20395;-83
2024/01/02 10:24:24;;;;;;;16.02;7.20;;;;;;;-148.88;100.00;-17125.47;5054786;28;20101;-82
2024/01/02 10:27:10;;;;;;;16.50;7.75;;;;;;;-148.88;100.00;-17125.47;5055247;28;20082;-82
2024/01/02 10:30:03;;;;;;;17.48;13.65;;;;;;;-148.88;100.00;-17125.47;5056682;28;20522;-83
2024/01/02 10:32:50;;;;;;;15.20;12.88;;;;;;;-148.88;100.00;-17125.47;5056387;28;20017;-83
2024/01/02 10:35:21;;;;;;;11.85;5.93;;;;;;;-148.88;100.00;-17125.47;5056628;28;20032;-83
2024/01/02 10:38:28;;;;;;;16.60;12.50;;;;;;;-148.88;100.00;-17125.47;5056695;28;20029;-83
2024/01/02 10:41:04;;;;;;;14.45;6.93;;;;;;;-148.88;100.00;-17125.47;5043193;28;20033;-82
2024/01/02 10:43:52;;;;;;;13.68;11.27;;;;;;;-148.88;100.00;-17125.47;5055159;28;20017;-82
2024/01/02 10:46:42;;;;;;;10.85;5.75;;;;;;;-148.88;100.00;-17125.47;5056474;28;20029;-83
2024/01/02 10:49:10;;;;;;;12.13;6.32;;;;;;;-148.88;100.00;-17125.47;5057053;28;20021;-83
2024/01/02 10:51:41;;;;;;;12.52;9.73;;;;;;;-148.88;100.00;-17125.47;5060083;28;20040;-83
2024/01/02 10:54:23;;;;;;;14.93;8.70;;;;;;;-148.88;100.00;-17125.47;5060893;28;20026;-83
2024/01/02 10:56:54;;;;;;;13.10;9.32;;;;;;;-148.88;100.00;-17125.47;5059806;28;20117;-83
2024/01/02 10:59:43;;;;;;;12.38;9.27;;;;;;;-148.88;100.00;-17125.47;5054929;28;20028;-83